Time;durP1;ratioP1;P1;durP2;ratioP2;P2;SDS_P1;SDS_P2;PMS_P1;PMS_P2;Temp;Humidity;BMP_temperature;BMP_pressure;BME280_temperature;BME280_humidity;BME280_pressure;Samples;Min_cycle;Max_cycle;Signal;HPM_P1;HPM_P2
2020/12/23 00:01:08;;;;;;;3.40;0.50;;;12.80;99.90;;;;;;5048597;28;20182;-64
2020/12/23 00:03:33;;;;;;;1.70;0.20;;;12.80;99.90;;;;;;5071396;28;20216;-65
2020/12/23 00:05:59;;;;;;;1.70;0.20;;;12.80;99.90;;;;;;5049245;28;20180;-64
2020/12/23 00:08:25;;;;;;;1.77;0.30;;;12.80;99.90;;;;;;5062034;28;20189;-65
2020/12/23 00:10:50;;;;;;;2.17;0.50;;;12.80;99.90;;;;;;5061642;28;20255;-64
2020/12/23 00:13:15;;;;;;;1.90;0.47;;;12.80;99.90;;;;;;5063979;28;20216;-64
2020/12/23 00:15:41;;;;;;;2.20;0.77;;;12.90;99.90;;;;;;5058896;28;20178;-64
2020/12/23 00:18:07;;;;;;;1.70;0.20;;;12.90;99.90;;;;;;5057874;28;20185;-67
2020/12/23 00:20:32;;;;;;;3.60;2.23;;;12.90;99.90;;;;;;5059500;28;20185;-64
2020/12/23 00:22:58;;;;;;;1.70;0.20;;;12.90;99.90;;;;;;5057889;28;20671;-64
2020/12/23 00:25:24;;;;;;;1.77;0.30;;;12.90;99.90;;;;;;5061206;28;20240;-64
2020/12/23 00:27:49;;;;;;;2.00;0.50;;;12.90;99.90;;;;;;5062680;28;20189;-64
2020/12/23 00:30:16;;;;;;;2.10;0.40;;;12.90;99.90;;;;;;5057150;28;20440;-64
2020/12/23 00:32:42;;;;;;;3.90;1.73;;;12.90;99.90;;;;;;5063055;28;20761;-64
2020/12/23 00:35:07;;;;;;;1.80;0.40;;;12.90;99.90;;;;;;5062635;28;20447;-64
2020/12/23 00:37:33;;;;;;;2.27;0.40;;;12.80;99.90;;;;;;5061007;28;20200;-65
2020/12/23 00:39:59;;;;;;;2.00;0.40;;;12.80;99.90;;;;;;5058931;28;20192;-64
2020/12/23 00:42:24;;;;;;;1.70;0.20;;;12.80;99.90;;;;;;5060355;28;20206;-64
2020/12/23 00:44:50;;;;;;;2.70;0.87;;;12.80;99.90;;;;;;5062250;28;20208;-64
2020/12/23 00:47:16;;;;;;;1.80;0.40;;;12.80;99.90;;;;;;5066496;28;20216;-64
2020/12/23 00:49:41;;;;;;;1.80;0.30;;;12.80;99.90;;;;;;5071242;28;20199;-64
2020/12/23 00:52:07;;;;;;;7.73;1.70;;;12.90;99.90;;;;;;5060675;28;20205;-65
2020/12/23 00:54:32;;;;;;;3.40;0.83;;;12.90;99.90;;;;;;5065238;28;20268;-64
2020/12/23 00:56:58;;;;;;;2.10;0.80;;;12.90;99.90;;;;;;5068187;28;20184;-64
2020/12/23 00:59:23;;;;;;;1.73;0.20;;;12.90;99.90;;;;;;5057727;28;20224;-64
2020/12/23 01:01:49;;;;;;;1.80;0.37;;;12.90;99.90;;;;;;5056332;28;20671;-64
2020/12/23 01:04:14;;;;;;;1.80;0.50;;;12.90;99.90;;;;;;5062957;28;20209;-64
2020/12/23 01:06:40;;;;;;;1.77;0.30;;;12.90;99.90;;;;;;5059649;28;20266;-65
2020/12/23 01:09:05;;;;;;;1.70;0.20;;;12.90;99.90;;;;;;5057124;28;20185;-64
2020/12/23 01:11:31;;;;;;;1.70;0.20;;;12.90;99.90;;;;;;5057550;28;20206;-64
2020/12/23 01:13:56;;;;;;;2.10;0.97;;;12.90;99.90;;;;;;5055938;28;20196;-64
2020/12/23 01:16:22;;;;;;;5.80;1.10;;;12.90;99.90;;;;;;5061480;28;20247;-64
2020/12/23 01:18:48;;;;;;;1.70;0.20;;;12.90;99.90;;;;;;5057209;28;20190;-64
2020/12/23 01:21:14;;;;;;;1.87;0.60;;;12.90;99.90;;;;;;5056306;28;20467;-64
2020/12/23 01:23:42;;;;;;;1.70;0.20;;;12.90;99.90;;;;;;5060358;28;20555;-64
2020/12/23 01:26:07;;;;;;;1.80;0.40;;;12.90;99.90;;;;;;5060246;28;20178;-64
2020/12/23 01:28:33;;;;;;;2.10;0.70;;;12.90;99.90;;;;;;5060322;28;20428;-64
2020/12/23 01:30:58;;;;;;;2.63;0.97;;;12.80;99.90;;;;;;5060346;28;20242;-64
2020/12/23 01:33:24;;;;;;;1.90;0.27;;;12.80;99.90;;;;;;5055288;28;20666;-64
2020/12/23 01:35:49;;;;;;;1.70;0.20;;;12.80;99.90;;;;;;5062955;28;20187;-64
2020/12/23 01:38:15;;;;;;;1.80;0.30;;;12.80;99.90;;;;;;5060982;28;20188;-64
2020/12/23 01:40:40;;;;;;;2.20;0.70;;;12.80;99.90;;;;;;5060375;28;20182;-64
2020/12/23 01:43:10;;;;;;;2.60;1.50;;;12.80;99.90;;;;;;5059623;28;20273;-64
2020/12/23 01:45:36;;;;;;;2.00;0.60;;;12.80;99.90;;;;;;5059989;28;20190;-64
2020/12/23 01:48:13;;;;;;;2.87;0.53;;;12.80;99.90;;;;;;5057606;28;20440;-64
2020/12/23 01:50:39;;;;;;;2.77;0.97;;;12.80;99.90;;;;;;5061731;28;20435;-64
2020/12/23 01:53:04;;;;;;;2.77;0.80;;;12.80;99.90;;;;;;5061672;28;20497;-65
2020/12/23 01:55:30;;;;;;;1.70;0.20;;;12.80;99.90;;;;;;5059937;28;20223;-64
2020/12/23 01:57:56;;;;;;;1.70;0.20;;;12.80;99.90;;;;;;5057042;28;20664;-64
2020/12/23 02:00:22;;;;;;;1.70;0.20;;;12.80;99.90;;;;;;5055338;28;20644;-64
2020/12/23 02:02:54;;;;;;;1.70;0.20;;;12.80;99.90;;;;;;5059773;28;20463;-64
2020/12/23 02:05:19;;;;;;;1.80;0.50;;;12.80;99.90;;;;;;5060708;28;20209;-64
2020/12/23 02:07:45;;;;;;;1.70;0.20;;;12.80;99.90;;;;;;5056919;28;20441;-64
2020/12/23 02:10:10;;;;;;;2.10;0.60;;;12.80;99.90;;;;;;5057124;28;20181;-64
2020/12/23 02:12:36;;;;;;;1.80;0.30;;;12.80;99.90;;;;;;5061007;28;20529;-64
2020/12/23 02:15:14;;;;;;;1.70;0.20;;;12.80;99.90;;;;;;5054846;28;20264;-65
2020/12/23 02:17:40;;;;;;;2.20;0.67;;;12.80;99.90;;;;;;5060624;28;20173;-65
2020/12/23 02:20:08;;;;;;;1.73;0.30;;;12.80;99.90;;;;;;5062104;28;20958;-64
2020/12/23 02:22:34;;;;;;;1.70;0.20;;;12.80;99.90;;;;;;5056816;28;20455;-64
2020/12/23 02:24:59;;;;;;;1.80;0.20;;;12.80;99.90;;;;;;5057627;28;20463;-65
2020/12/23 02:27:25;;;;;;;1.70;0.20;;;12.80;99.90;;;;;;5056670;28;20277;-64
2020/12/23 02:29:56;;;;;;;1.70;0.20;;;12.80;99.90;;;;;;5055858;28;20182;-64
2020/12/23 02:32:22;;;;;;;2.07;0.70;;;12.80;99.90;;;;;;5057837;28;20962;-64
2020/12/23 02:34:48;;;;;;;2.50;0.90;;;12.80;99.90;;;;;;5055494;28;20942;-65
2020/12/23 02:37:14;;;;;;;1.70;0.20;;;12.80;99.90;;;;;;5056436;28;20488;-64
2020/12/23 02:39:43;;;;;;;1.80;0.37;;;12.80;99.90;;;;;;5060469;28;21064;-64
2020/12/23 02:42:09;;;;;;;3.90;0.97;;;12.80;99.90;;;;;;5057227;28;20214;-64
2020/12/23 02:44:34;;;;;;;2.10;0.43;;;12.80;99.90;;;;;;5057012;28;20464;-64
2020/12/23 02:47:02;;;;;;;2.27;0.80;;;12.80;99.90;;;;;;5070587;28;20461;-65
2020/12/23 02:49:28;;;;;;;1.70;0.20;;;12.80;99.90;;;;;;5072952;28;20694;-64
2020/12/23 02:51:55;;;;;;;1.70;0.20;;;12.70;99.90;;;;;;5058223;28;20468;-64
2020/12/23 02:54:21;;;;;;;1.70;0.20;;;12.80;99.90;;;;;;5068981;28;20446;-64
2020/12/23 02:56:47;;;;;;;5.03;3.43;;;12.70;99.90;;;;;;5071745;28;20795;-66
2020/12/23 02:59:12;;;;;;;1.80;0.40;;;12.70;99.90;;;;;;5067985;28;20518;-63
2020/12/23 03:01:39;;;;;;;1.80;0.30;;;12.70;99.90;;;;;;5059386;28;20205;-63
2020/12/23 03:04:05;;;;;;;1.80;0.40;;;12.70;99.90;;;;;;5067302;28;20216;-65
2020/12/23 03:06:31;;;;;;;1.70;0.20;;;12.70;99.90;;;;;;5063734;28;20964;-64
2020/12/23 03:08:56;;;;;;;1.70;0.20;;;12.60;99.90;;;;;;5075244;28;20441;-64
2020/12/23 03:11:22;;;;;;;1.70;0.20;;;12.60;99.90;;;;;;5066211;28;20469;-64
2020/12/23 03:13:47;;;;;;;1.80;0.30;;;12.60;99.90;;;;;;5065029;28;20656;-63
2020/12/23 03:16:13;;;;;;;1.70;0.20;;;12.60;99.90;;;;;;5059182;28;20267;-63
2020/12/23 03:18:39;;;;;;;1.70;0.20;;;12.50;99.90;;;;;;5060181;28;20201;-63
2020/12/23 03:21:06;;;;;;;1.70;0.20;;;12.50;99.90;;;;;;5060980;28;20254;-64
2020/12/23 03:23:32;;;;;;;1.70;0.20;;;12.50;99.90;;;;;;5059543;28;20444;-63
2020/12/23 03:25:58;;;;;;;1.70;0.20;;;12.50;99.90;;;;;;5057979;28;20517;-64
2020/12/23 03:28:23;;;;;;;1.70;0.20;;;12.50;99.90;;;;;;5056674;28;20181;-64
2020/12/23 03:30:49;;;;;;;1.70;0.20;;;12.50;99.90;;;;;;5055602;28;20452;-63
2020/12/23 03:33:14;;;;;;;1.70;0.20;;;12.50;99.90;;;;;;5061620;28;20228;-63
2020/12/23 03:35:40;;;;;;;1.70;0.20;;;12.50;99.90;;;;;;5056340;28;20245;-63
2020/12/23 03:38:05;;;;;;;1.70;0.20;;;12.50;99.90;;;;;;5059006;28;20652;-63
2020/12/23 03:40:31;;;;;;;1.70;0.20;;;12.50;99.90;;;;;;5060016;28;20181;-63
2020/12/23 03:42:56;;;;;;;1.70;0.20;;;12.40;99.90;;;;;;5063034;28;20209;-63
2020/12/23 03:45:22;;;;;;;1.70;0.20;;;12.50;99.90;;;;;;5059339;28;20266;-63
2020/12/23 03:47:47;;;;;;;1.80;0.30;;;12.40;99.90;;;;;;5060713;28;20508;-63
2020/12/23 03:50:13;;;;;;;1.70;0.20;;;12.40;99.90;;;;;;5063450;28;20280;-63
2020/12/23 03:52:39;;;;;;;2.10;0.70;;;12.40;99.90;;;;;;5061143;28;20446;-63
2020/12/23 03:55:04;;;;;;;1.70;0.20;;;12.40;99.90;;;;;;5065752;28;20190;-63
2020/12/23 03:57:30;;;;;;;1.70;0.20;;;12.40;99.90;;;;;;5062120;28;20221;-63
2020/12/23 03:59:55;;;;;;;1.90;0.40;;;12.40;99.90;;;;;;5066163;28;20216;-63
2020/12/23 04:02:21;;;;;;;1.70;0.20;;;12.40;99.90;;;;;;5059748;28;20259;-62
2020/12/23 04:04:46;;;;;;;1.70;0.20;;;12.40;99.90;;;;;;5060830;28;20299;-63
2020/12/23 04:07:12;;;;;;;1.70;0.20;;;12.40;99.90;;;;;;5061822;28;20216;-63
2020/12/23 04:09:37;;;;;;;1.70;0.20;;;12.40;99.90;;;;;;5065746;28;20201;-63
2020/12/23 04:12:03;;;;;;;1.70;0.20;;;12.40;99.90;;;;;;5063591;28;20200;-64
2020/12/23 04:14:28;;;;;;;1.70;0.20;;;12.40;99.90;;;;;;5061075;28;20185;-63
2020/12/23 04:16:54;;;;;;;1.70;0.20;;;12.30;99.90;;;;;;5058088;28;20184;-64
2020/12/23 04:19:19;;;;;;;1.70;0.20;;;12.20;99.90;;;;;;5057371;28;20181;-63
2020/12/23 04:21:45;;;;;;;1.70;0.20;;;12.30;99.90;;;;;;5064368;28;20208;-63
2020/12/23 04:24:10;;;;;;;1.70;0.20;;;12.20;99.90;;;;;;5058115;28;20568;-63
2020/12/23 04:26:36;;;;;;;1.70;0.20;;;12.20;99.90;;;;;;5059358;28;20197;-63
2020/12/23 04:29:01;;;;;;;1.70;0.20;;;12.20;99.90;;;;;;5063438;28;20743;-63
2020/12/23 04:31:27;;;;;;;1.70;0.20;;;12.20;99.90;;;;;;5056933;28;20213;-64
2020/12/23 04:33:53;;;;;;;1.70;0.20;;;12.20;99.90;;;;;;5060196;28;20674;-63
2020/12/23 04:36:18;;;;;;;1.70;0.20;;;12.10;99.90;;;;;;5064510;28;20181;-64
2020/12/23 04:38:43;;;;;;;1.70;0.20;;;12.10;99.90;;;;;;5061866;28;20239;-64
2020/12/23 04:41:09;;;;;;;1.70;0.20;;;12.10;99.90;;;;;;5060699;28;20193;-63
2020/12/23 04:43:35;;;;;;;1.70;0.20;;;12.20;99.90;;;;;;5062850;28;20181;-63
2020/12/23 04:46:02;;;;;;;1.70;0.20;;;12.20;99.90;;;;;;5057191;28;20221;-63
2020/12/23 04:48:31;;;;;;;1.70;0.20;;;12.20;99.90;;;;;;5061218;28;20671;-63
2020/12/23 04:50:57;;;;;;;1.70;0.20;;;12.20;99.90;;;;;;5061329;28;20474;-63
2020/12/23 04:53:23;;;;;;;1.70;0.20;;;12.20;99.90;;;;;;5052048;28;20462;-63
2020/12/23 04:55:49;;;;;;;1.70;0.20;;;12.20;99.90;;;;;;5059665;28;20215;-63
2020/12/23 04:58:15;;;;;;;1.77;0.30;;;12.10;99.90;;;;;;5041008;28;20463;-63
2020/12/23 05:00:40;;;;;;;1.70;0.20;;;12.10;99.90;;;;;;5058922;28;20186;-63
2020/12/23 05:03:06;;;;;;;1.70;0.20;;;12.10;99.90;;;;;;5062792;28;20208;-63
2020/12/23 05:05:31;;;;;;;2.00;0.43;;;12.00;99.90;;;;;;5057947;28;20217;-63
2020/12/23 05:07:58;;;;;;;1.70;0.20;;;12.00;99.90;;;;;;5060821;28;20802;-63
2020/12/23 05:10:27;;;;;;;1.70;0.20;;;12.00;99.90;;;;;;5058850;28;20575;-64
2020/12/23 05:12:53;;;;;;;1.70;0.20;;;12.00;99.90;;;;;;5058572;28;20491;-63
2020/12/23 05:15:18;;;;;;;1.70;0.20;;;12.00;99.90;;;;;;5057439;28;20847;-63
2020/12/23 05:17:45;;;;;;;1.70;0.20;;;12.00;99.90;;;;;;5056774;28;20279;-63
2020/12/23 05:20:11;;;;;;;1.70;0.20;;;12.00;99.90;;;;;;5066539;28;20188;-63
2020/12/23 05:22:36;;;;;;;1.90;0.30;;;12.00;99.90;;;;;;5061445;28;20875;-63
2020/12/23 05:25:03;;;;;;;1.77;0.30;;;12.00;99.90;;;;;;5068856;28;20224;-63
2020/12/23 05:27:32;;;;;;;1.70;0.20;;;12.00;99.90;;;;;;5056097;28;20644;-64
2020/12/23 05:29:58;;;;;;;1.70;0.20;;;12.00;99.90;;;;;;5065062;22;20849;-57
2020/12/23 05:32:25;;;;;;;1.70;0.20;;;12.00;99.90;;;;;;5031130;28;20429;-57
2020/12/23 05:34:51;;;;;;;1.70;0.20;;;12.00;99.90;;;;;;5029756;28;20458;-56
2020/12/23 05:37:19;;;;;;;1.70;0.20;;;12.00;99.90;;;;;;5028724;28;20978;-57
2020/12/23 05:39:45;;;;;;;1.70;0.20;;;12.00;99.90;;;;;;5030998;28;20452;-57
2020/12/23 05:42:12;;;;;;;1.70;0.20;;;12.10;99.90;;;;;;5026342;28;21180;-57
2020/12/23 05:44:38;;;;;;;1.73;0.20;;;12.10;99.90;;;;;;5030255;28;20790;-57
2020/12/23 05:47:04;;;;;;;1.70;0.20;;;12.10;99.90;;;;;;5023604;28;20513;-57
2020/12/23 05:49:30;;;;;;;1.73;0.20;;;12.20;99.90;;;;;;5019676;28;20206;-57
2020/12/23 05:51:57;;;;;;;1.70;0.20;;;12.20;99.90;;;;;;5030370;28;20966;-56
2020/12/23 05:54:22;;;;;;;1.70;0.20;;;12.20;99.90;;;;;;5030678;28;20210;-58
2020/12/23 05:56:52;;;;;;;1.70;0.20;;;12.20;99.90;;;;;;5026887;28;20503;-57
2020/12/23 05:59:19;;;;;;;1.70;0.20;;;12.20;99.90;;;;;;5022930;28;20216;-56
2020/12/23 06:01:44;;;;;;;1.70;0.20;;;12.20;99.90;;;;;;5029741;28;20540;-57
2020/12/23 06:04:15;;;;;;;1.70;0.20;;;12.30;99.90;;;;;;5025074;28;21043;-57
2020/12/23 06:06:43;;;;;;;1.70;0.20;;;12.30;99.90;;;;;;5026711;28;20446;-57
2020/12/23 06:09:11;;;;;;;1.70;0.20;;;12.30;99.90;;;;;;5029133;28;20503;-57
2020/12/23 06:11:42;;;;;;;1.70;0.20;;;12.30;99.90;;;;;;5023713;28;20441;-57
2020/12/23 06:14:14;;;;;;;1.70;0.20;;;12.30;99.90;;;;;;5028057;28;20463;-57
2020/12/23 06:16:49;;;;;;;1.70;0.20;;;12.30;99.90;;;;;;5026114;28;20974;-57
2020/12/23 06:19:29;;;;;;;1.70;0.20;;;12.40;99.90;;;;;;5024841;28;20461;-57
2020/12/23 06:21:57;;;;;;;1.70;0.20;;;12.40;99.90;;;;;;5025575;28;20954;-57
2020/12/23 06:24:24;;;;;;;1.70;0.20;;;12.40;99.90;;;;;;5030262;28;20971;-57
2020/12/23 06:26:55;;;;;;;1.70;0.20;;;12.50;99.90;;;;;;5027086;28;20776;-57
2020/12/23 06:29:27;;;;;;;2.40;0.50;;;12.50;99.90;;;;;;5030434;28;20586;-57
2020/12/23 06:31:55;;;;;;;1.70;0.20;;;12.50;99.90;;;;;;5024050;28;20441;-57
2020/12/23 06:34:29;;;;;;;1.70;0.20;;;12.50;99.90;;;;;;5023679;28;20460;-57
2020/12/23 06:36:55;;;;;;;1.80;0.30;;;12.50;99.90;;;;;;5027106;28;21013;-57
2020/12/23 06:39:42;;;;;;;1.70;0.20;;;12.50;99.90;;;;;;5029433;28;20896;-57
2020/12/23 06:42:08;;;;;;;1.70;0.20;;;12.50;99.90;;;;;;5025171;28;20495;-57
2020/12/23 06:44:42;;;;;;;1.70;0.20;;;12.50;99.90;;;;;;5028254;28;20460;-55
2020/12/23 06:47:15;;;;;;;2.00;0.50;;;12.50;99.90;;;;;;5020056;28;20253;-57
2020/12/23 06:49:42;;;;;;;1.70;0.20;;;12.50;99.90;;;;;;5026151;28;20480;-57
2020/12/23 06:52:27;;;;;;;2.70;0.90;;;12.50;99.90;;;;;;5028059;28;20441;-56
2020/12/23 06:55:11;;;;;;;1.70;0.20;;;12.50;99.90;;;;;;5030438;28;20769;-57
2020/12/23 06:57:36;;;;;;;1.70;0.20;;;12.50;99.90;;;;;;5027298;28;20452;-57
2020/12/23 07:00:08;;;;;;;1.70;0.20;;;12.50;99.90;;;;;;5027277;28;20452;-57
2020/12/23 07:02:35;;;;;;;1.70;0.20;;;12.50;99.90;;;;;;5028958;28;20186;-56
2020/12/23 07:05:01;;;;;;;1.70;0.20;;;12.50;99.90;;;;;;5026707;28;20563;-58
2020/12/23 07:07:35;;;;;;;1.80;0.30;;;12.50;99.90;;;;;;5027813;28;20575;-57
2020/12/23 07:10:07;;;;;;;1.73;0.20;;;12.50;99.90;;;;;;5030645;28;20190;-56
2020/12/23 07:12:35;;;;;;;2.40;0.67;;;12.50;99.90;;;;;;5029964;28;20443;-57
2020/12/23 07:15:12;;;;;;;1.70;0.20;;;12.60;99.90;;;;;;5026430;28;20449;-56
2020/12/23 07:17:40;;;;;;;1.70;0.20;;;12.60;99.90;;;;;;5031443;28;20440;-57
2020/12/23 07:20:07;;;;;;;1.70;0.20;;;12.50;99.90;;;;;;5030430;28;20515;-57
2020/12/23 07:22:34;;;;;;;1.90;0.30;;;12.60;99.90;;;;;;5030053;28;20428;-56
2020/12/23 07:25:00;;;;;;;1.70;0.20;;;12.50;99.90;;;;;;5028318;28;20471;-57
2020/12/23 07:27:27;;;;;;;1.70;0.20;;;12.50;99.90;;;;;;5022178;28;20916;-57
2020/12/23 07:29:56;;;;;;;1.70;0.20;;;12.60;99.90;;;;;;5023564;28;20543;-57
2020/12/23 07:32:25;;;;;;;2.03;0.40;;;12.60;99.90;;;;;;5033669;28;20456;-56
2020/12/23 07:34:50;;;;;;;1.70;0.20;;;12.50;99.90;;;;;;5028356;28;20915;-57
2020/12/23 07:37:16;;;;;;;1.70;0.20;;;12.50;99.90;;;;;;5030467;28;20447;-57
2020/12/23 07:39:49;;;;;;;1.70;0.20;;;12.50;99.90;;;;;;5027344;28;20210;-57
2020/12/23 07:42:18;;;;;;;1.70;0.20;;;12.50;99.90;;;;;;5027396;28;20484;-56
2020/12/23 07:44:51;;;;;;;1.70;0.20;;;12.50;99.90;;;;;;5030713;28;20461;-56
2020/12/23 07:47:21;;;;;;;1.70;0.20;;;12.50;99.90;;;;;;5033184;28;20951;-57
2020/12/23 07:49:58;;;;;;;1.70;0.20;;;12.50;99.90;;;;;;5027005;28;20456;-57
2020/12/23 07:52:23;;;;;;;1.80;0.40;;;12.50;99.90;;;;;;5031014;28;20436;-57
2020/12/23 07:54:49;;;;;;;1.70;0.20;;;12.50;99.90;;;;;;5029098;28;20478;-57
2020/12/23 07:57:27;;;;;;;1.77;0.27;;;12.50;99.90;;;;;;5026297;28;20648;-57
2020/12/23 07:59:58;;;;;;;1.80;0.40;;;12.50;99.90;;;;;;5030598;28;20209;-57
2020/12/23 08:02:24;;;;;;;1.70;0.20;;;12.50;99.90;;;;;;5029502;28;20461;-57
2020/12/23 08:04:50;;;;;;;1.70;0.20;;;12.50;99.90;;;;;;5026508;28;20478;-57
2020/12/23 08:07:25;;;;;;;1.70;0.20;;;12.50;99.90;;;;;;5030890;28;20198;-57
2020/12/23 08:09:51;;;;;;;1.70;0.20;;;12.50;99.90;;;;;;5026102;28;20459;-55
2020/12/23 08:12:18;;;;;;;1.70;0.20;;;12.60;99.90;;;;;;5029415;28;20942;-55
2020/12/23 08:14:44;;;;;;;1.70;0.20;;;12.60;99.90;;;;;;5032450;28;20768;-57
2020/12/23 08:17:10;;;;;;;1.80;0.20;;;12.60;99.90;;;;;;5028988;28;20429;-57
2020/12/23 08:19:35;;;;;;;1.70;0.20;;;12.60;99.90;;;;;;5029875;28;20318;-57
2020/12/23 08:22:13;;;;;;;2.00;0.70;;;12.60;99.90;;;;;;5030471;28;20182;-56
2020/12/23 08:24:39;;;;;;;1.70;0.20;;;12.70;99.90;;;;;;5027129;28;20290;-56
2020/12/23 08:27:04;;;;;;;1.70;0.20;;;12.60;99.90;;;;;;5028658;28;20507;-56
2020/12/23 08:29:31;;;;;;;1.70;0.20;;;12.60;99.90;;;;;;5028459;28;20211;-56
2020/12/23 08:31:57;;;;;;;1.70;0.20;;;12.60;99.90;;;;;;5029155;28;20257;-56
2020/12/23 08:34:26;;;;;;;1.70;0.20;;;12.60;99.90;;;;;;5026778;28;20437;-56
2020/12/23 08:36:53;;;;;;;3.33;0.60;;;12.60;99.90;;;;;;5024126;28;20441;-56
2020/12/23 08:39:23;;;;;;;1.70;0.20;;;12.60;99.90;;;;;;5028635;28;20493;-56
2020/12/23 08:41:49;;;;;;;1.70;0.20;;;12.60;99.90;;;;;;5028449;28;20443;-57
2020/12/23 08:44:20;;;;;;;1.70;0.20;;;12.60;99.90;;;;;;5031051;28;20481;-57
2020/12/23 08:46:46;;;;;;;1.70;0.20;;;12.60;99.90;;;;;;5029189;28;20652;-57
2020/12/23 08:49:13;;;;;;;1.70;0.20;;;12.60;99.90;;;;;;5029266;28;20450;-56
2020/12/23 08:51:39;;;;;;;1.70;0.20;;;12.60;99.90;;;;;;5030801;28;20859;-56
2020/12/23 08:54:12;;;;;;;1.70;0.30;;;12.60;99.90;;;;;;5029584;28;20452;-58
2020/12/23 08:56:46;;;;;;;1.70;0.20;;;12.60;99.90;;;;;;5029980;28;20202;-56
2020/12/23 08:59:13;;;;;;;1.80;0.30;;;12.60;99.90;;;;;;5027543;28;20854;-57
2020/12/23 09:01:39;;;;;;;5.53;3.00;;;12.60;99.90;;;;;;5022694;28;20442;-57
2020/12/23 09:04:05;;;;;;;1.70;0.20;;;12.60;99.90;;;;;;5029563;28;20583;-56
2020/12/23 09:06:38;;;;;;;1.80;0.37;;;12.60;99.90;;;;;;5031442;28;20186;-57
2020/12/23 09:09:15;;;;;;;1.70;0.20;;;12.60;99.90;;;;;;5027479;28;20464;-57
2020/12/23 09:11:46;;;;;;;1.70;0.30;;;12.60;99.90;;;;;;5033638;28;20506;-56
2020/12/23 09:14:21;;;;;;;1.97;0.40;;;12.60;99.90;;;;;;5042407;28;20499;-57
2020/12/23 09:17:00;;;;;;;2.13;0.80;;;12.60;99.90;;;;;;5025193;28;20534;-57
2020/12/23 09:19:43;;;;;;;1.70;0.20;;;12.60;99.90;;;;;;5025191;28;20460;-57
2020/12/23 09:22:23;;;;;;;1.80;0.30;;;12.60;99.90;;;;;;5023907;28;20552;-57
2020/12/23 09:24:49;;;;;;;1.70;0.20;;;12.60;99.90;;;;;;5028494;28;20476;-57
2020/12/23 09:27:23;;;;;;;1.70;0.20;;;12.60;99.90;;;;;;5026712;28;20922;-56
2020/12/23 09:29:50;;;;;;;1.80;0.30;;;12.60;99.90;;;;;;5029834;28;20598;-57
2020/12/23 09:32:15;;;;;;;1.70;0.20;;;12.60;99.90;;;;;;5026190;28;20475;-57
2020/12/23 09:34:41;;;;;;;1.70;0.30;;;12.60;99.90;;;;;;5025883;28;20476;-57
2020/12/23 09:37:07;;;;;;;2.00;0.47;;;12.60;99.90;;;;;;5028693;28;20277;-58
2020/12/23 09:39:36;;;;;;;1.70;0.30;;;12.60;99.90;;;;;;5027937;28;20210;-58
2020/12/23 09:42:04;;;;;;;3.40;1.70;;;12.60;99.90;;;;;;5022020;28;20866;-58
2020/12/23 09:44:30;;;;;;;1.70;0.20;;;12.60;99.90;;;;;;5030996;28;20959;-55
2020/12/23 09:46:56;;;;;;;2.00;0.80;;;12.60;99.90;;;;;;5028749;28;20451;-57
2020/12/23 09:49:22;;;;;;;1.70;0.20;;;12.60;99.90;;;;;;5029222;28;20935;-59
2020/12/23 09:51:49;;;;;;;2.00;0.40;;;12.60;99.90;;;;;;5030285;28;20437;-56
2020/12/23 09:54:15;;;;;;;2.17;0.90;;;12.50;99.90;;;;;;5020672;28;20198;-56
2020/12/23 09:56:48;;;;;;;1.80;0.37;;;12.50;99.90;;;;;;5025513;28;20449;-55
2020/12/23 09:59:13;;;;;;;1.70;0.20;;;12.50;99.90;;;;;;5029507;28;20460;-58
2020/12/23 10:01:39;;;;;;;1.70;0.20;;;12.50;99.90;;;;;;5025563;28;20517;-58
2020/12/23 10:04:04;;;;;;;2.27;0.67;;;12.50;99.90;;;;;;5033497;28;20207;-58
2020/12/23 10:06:30;;;;;;;1.70;0.20;;;12.50;99.90;;;;;;5030535;28;20183;-58
2020/12/23 10:08:55;;;;;;;1.70;0.20;;;12.50;99.90;;;;;;5027530;28;20614;-58
2020/12/23 10:11:21;;;;;;;3.00;1.60;;;12.50;99.90;;;;;;5028794;28;20256;-58
2020/12/23 10:13:46;;;;;;;1.70;0.20;;;12.50;99.90;;;;;;5036500;28;20257;-58
2020/12/23 10:16:12;;;;;;;1.70;0.20;;;12.50;99.90;;;;;;5026722;28;20191;-58
2020/12/23 10:18:37;;;;;;;1.70;0.20;;;12.50;99.90;;;;;;5023545;28;20258;-57
2020/12/23 10:21:03;;;;;;;1.70;0.20;;;12.50;99.90;;;;;;5022908;28;20186;-57
2020/12/23 10:23:29;;;;;;;1.70;0.20;;;12.60;99.90;;;;;;5025420;28;20183;-57
2020/12/23 10:25:54;;;;;;;2.60;0.57;;;12.50;99.90;;;;;;5023514;28;20745;-56
2020/12/23 10:28:20;;;;;;;1.70;0.20;;;12.50;99.90;;;;;;5028836;28;20205;-57
2020/12/23 10:30:45;;;;;;;1.80;0.30;;;12.50;99.90;;;;;;5036686;28;20197;-57
2020/12/23 10:33:11;;;;;;;2.30;0.50;;;12.50;99.90;;;;;;5036647;28;20193;-58
2020/12/23 10:35:37;;;;;;;1.70;0.20;;;12.60;99.90;;;;;;5024703;28;20584;-57
2020/12/23 10:38:02;;;;;;;1.70;0.20;;;12.60;99.90;;;;;;5022482;28;20495;-58
2020/12/23 10:40:28;;;;;;;1.90;0.30;;;12.60;99.90;;;;;;5023839;28;20452;-58
2020/12/23 10:42:53;;;;;;;2.57;0.97;;;12.60;99.90;;;;;;5020715;28;20191;-58
2020/12/23 10:45:19;;;;;;;1.77;0.37;;;12.60;99.90;;;;;;5017815;28;20214;-59
2020/12/23 10:47:44;;;;;;;1.80;0.30;;;12.60;99.90;;;;;;5022429;28;20187;-58
2020/12/23 10:50:10;;;;;;;2.60;0.57;;;12.50;99.90;;;;;;5021661;28;20206;-59
2020/12/23 10:52:35;;;;;;;1.70;0.20;;;12.60;99.90;;;;;;5026784;28;20237;-59
2020/12/23 10:55:01;;;;;;;1.70;0.20;;;12.60;99.90;;;;;;5021742;28;20667;-60
2020/12/23 10:57:26;;;;;;;2.20;0.50;;;12.70;99.90;;;;;;5023497;28;20202;-59
2020/12/23 10:59:52;;;;;;;1.80;0.40;;;12.70;99.90;;;;;;5029688;28;20199;-58
2020/12/23 11:02:18;;;;;;;1.77;0.30;;;12.70;99.90;;;;;;5019924;28;20638;-58
2020/12/23 11:04:46;;;;;;;2.07;0.67;;;12.70;99.90;;;;;;5027005;28;20225;-58
2020/12/23 11:07:12;;;;;;;2.30;1.60;;;12.70;99.90;;;;;;5026190;28;20208;-58
2020/12/23 11:09:38;;;;;;;1.70;0.20;;;12.70;99.90;;;;;;5023135;28;20453;-58
2020/12/23 11:12:03;;;;;;;1.70;0.20;;;12.70;99.90;;;;;;5020088;28;20445;-58
2020/12/23 11:14:28;;;;;;;1.70;0.20;;;12.70;99.90;;;;;;5029218;28;20187;-58
2020/12/23 11:16:54;;;;;;;1.70;0.20;;;12.60;99.90;;;;;;5027936;28;20539;-59
2020/12/23 11:19:20;;;;;;;2.77;0.70;;;12.70;99.90;;;;;;5022664;28;20199;-61
2020/12/23 11:21:46;;;;;;;1.80;0.40;;;12.60;99.90;;;;;;5027647;28;20199;-61
2020/12/23 11:24:11;;;;;;;1.70;0.30;;;12.70;99.90;;;;;;5025133;28;20205;-60
2020/12/23 11:26:37;;;;;;;1.70;0.20;;;12.70;99.90;;;;;;5022260;28;20464;-59
2020/12/23 11:29:03;;;;;;;1.70;0.20;;;12.70;99.90;;;;;;5027427;28;20248;-57
2020/12/23 11:31:29;;;;;;;2.33;0.77;;;12.70;99.90;;;;;;5023788;28;20190;-58
2020/12/23 11:33:54;;;;;;;1.70;0.20;;;12.70;99.90;;;;;;5027868;28;20430;-57
2020/12/23 11:36:20;;;;;;;1.70;0.20;;;12.60;99.90;;;;;;5019555;28;20182;-57
2020/12/23 11:38:46;;;;;;;2.67;0.97;;;12.70;99.90;;;;;;5021790;28;20213;-58
2020/12/23 11:41:12;;;;;;;1.70;0.20;;;12.60;99.90;;;;;;5026645;28;20201;-58
2020/12/23 11:43:37;;;;;;;1.80;0.20;;;12.60;99.90;;;;;;5027115;28;20187;-58
2020/12/23 11:46:06;;;;;;;1.70;0.20;;;12.70;99.90;;;;;;5025094;28;20448;-57
2020/12/23 11:48:32;;;;;;;1.70;0.20;;;12.60;99.90;;;;;;5023142;28;20675;-57
2020/12/23 11:50:58;;;;;;;1.93;0.60;;;12.70;99.90;;;;;;5021068;28;20893;-58
2020/12/23 11:53:24;;;;;;;2.20;0.60;;;12.70;99.90;;;;;;5022649;28;20443;-58
2020/12/23 11:55:50;;;;;;;2.10;0.60;;;12.70;99.90;;;;;;5026422;28;20191;-59
2020/12/23 11:58:15;;;;;;;1.70;0.20;;;12.70;99.90;;;;;;5025163;28;20202;-57
2020/12/23 12:00:41;;;;;;;1.70;0.20;;;12.60;99.90;;;;;;5031386;28;20266;-57
2020/12/23 12:03:06;;;;;;;1.70;0.20;;;12.60;99.90;;;;;;5031940;28;20186;-57
2020/12/23 12:05:32;;;;;;;3.20;1.60;;;12.70;99.90;;;;;;5027953;28;20557;-57
2020/12/23 12:07:58;;;;;;;2.87;1.37;;;12.70;99.90;;;;;;5024313;28;20194;-57
2020/12/23 12:10:23;;;;;;;3.17;1.57;;;12.70;99.90;;;;;;5029154;28;20572;-56
2020/12/23 12:12:49;;;;;;;2.10;1.33;;;12.60;99.90;;;;;;5026953;28;20442;-57
2020/12/23 12:15:15;;;;;;;1.80;0.30;;;12.60;99.90;;;;;;5032155;28;20187;-57
2020/12/23 12:17:40;;;;;;;1.70;0.20;;;12.60;99.90;;;;;;5047949;22;20222;-67
2020/12/23 12:20:06;;;;;;;3.77;1.13;;;12.60;99.90;;;;;;5039295;28;20191;-68
2020/12/23 12:22:34;;;;;;;1.70;0.20;;;12.60;99.90;;;;;;5025687;28;20255;-68
2020/12/23 12:24:59;;;;;;;2.73;0.60;;;12.60;99.90;;;;;;5017965;28;20464;-68
2020/12/23 12:27:25;;;;;;;2.67;0.50;;;12.60;99.90;;;;;;5019659;28;20454;-68
2020/12/23 12:29:51;;;;;;;2.53;0.97;;;12.60;99.90;;;;;;5017337;28;20644;-68
2020/12/23 12:32:16;;;;;;;1.70;0.20;;;12.60;99.90;;;;;;5010591;28;20196;-68
2020/12/23 12:34:43;;;;;;;1.90;0.67;;;12.60;99.90;;;;;;5014796;28;20192;-68
2020/12/23 12:37:09;;;;;;;1.80;0.37;;;12.60;99.90;;;;;;5005436;28;20450;-67
2020/12/23 12:39:34;;;;;;;1.70;0.20;;;12.60;99.90;;;;;;5008746;28;20195;-68
2020/12/23 12:42:01;;;;;;;2.10;0.77;;;12.60;99.90;;;;;;5012161;28;20450;-67
2020/12/23 12:44:27;;;;;;;1.70;0.20;;;12.70;99.90;;;;;;5008738;28;20203;-68
2020/12/23 12:46:53;;;;;;;1.70;0.20;;;12.70;99.90;;;;;;5008931;28;20459;-67